Time;durP1;ratioP1;P1;durP2;ratioP2;P2;SDS_P1;SDS_P2;PMS_P1;PMS_P2;Temp;Humidity;BMP_temperature;BMP_pressure;BME280_temperature;BME280_humidity;BME280_pressure;Samples;Min_cycle;Max_cycle;Signal;HPM_P1;HPM_P2
2022/03/14 00:00:33;;;;;;;;;;;;;;;28.28;58.19;98302.63;627065;226;65110;-69
2022/03/14 00:03:02;;;;;;;;;;;;;;;28.27;57.85;98301.83;627041;226;65354;-69
2022/03/14 00:05:31;;;;;;;;;;;;;;;28.28;58.00;98302.63;627029;226;64888;-69
2022/03/14 00:08:00;;;;;;;;;;;;;;;28.25;57.62;98309.41;627038;226;62992;-69
2022/03/14 00:10:28;;;;;;;;;;;;;;;28.25;58.33;98303.20;627063;226;64275;-69
2022/03/14 00:12:57;;;;;;;;;;;;;;;28.22;58.15;98311.89;627078;226;64438;-69
2022/03/14 00:15:33;;;;;;;;;;;;;;;28.21;58.29;98307.56;627022;226;65282;-69
2022/03/14 00:17:59;;;;;;;;;;;;;;;28.20;58.09;98308.66;626904;224;65167;-69
2022/03/14 00:20:26;;;;;;;;;;;;;;;28.20;58.55;98311.36;627029;226;62699;-69
2022/03/14 00:22:54;;;;;;;;;;;;;;;28.19;58.71;98310.56;627021;226;63166;-69
2022/03/14 00:25:22;;;;;;;;;;;;;;;28.18;58.43;98318.95;627090;226;62950;-69
2022/03/14 00:27:49;;;;;;;;;;;;;;;28.16;58.58;98316.55;627028;226;64912;-69
2022/03/14 00:30:17;;;;;;;;;;;;;;;28.14;58.29;98320.62;627030;226;65241;-69
2022/03/14 00:32:46;;;;;;;;;;;;;;;28.13;58.20;98319.00;627016;226;62894;-69
2022/03/14 00:35:14;;;;;;;;;;;;;;;28.13;58.02;98316.30;627010;226;64979;-69
2022/03/14 00:37:42;;;;;;;;;;;;;;;28.08;58.55;98317.97;626994;226;63143;-69
2022/03/14 00:40:10;;;;;;;;;;;;;;;28.09;59.25;98314.17;627004;226;62889;-69
2022/03/14 00:42:39;;;;;;;;;;;;;;;28.09;58.64;98322.28;627024;226;64940;-69
2022/03/14 00:45:07;;;;;;;;;;;;;;;28.08;58.31;98325.28;627006;226;65498;-69
2022/03/14 00:47:35;;;;;;;;;;;;;;;28.07;58.41;98324.48;627009;226;64945;-69
2022/03/14 00:50:03;;;;;;;;;;;;;;;28.06;57.68;98328.26;627060;226;62667;-69
2022/03/14 00:52:30;;;;;;;;;;;;;;;28.06;58.29;98332.86;627007;226;65243;-69
2022/03/14 00:54:58;;;;;;;;;;;;;;;28.03;58.77;98328.83;627016;226;65214;-69
2022/03/14 00:57:26;;;;;;;;;;;;;;;28.02;58.50;98324.53;626978;226;65498;-69
2022/03/14 00:59:55;;;;;;;;;;;;;;;28.01;59.04;98332.91;627013;225;47225;-69
2022/03/14 01:02:24;;;;;;;;;;;;;;;28.00;58.58;98337.52;626988;226;63091;-69
2022/03/14 01:04:52;;;;;;;;;;;;;;;28.00;58.31;98344.81;627061;226;64960;-69
2022/03/14 01:07:19;;;;;;;;;;;;;;;27.99;58.58;98333.21;627031;226;62986;-69
2022/03/14 01:09:47;;;;;;;;;;;;;;;27.98;58.65;98339.69;627035;226;63045;-69
2022/03/14 01:12:15;;;;;;;;;;;;;;;27.96;58.70;98333.75;627042;226;63620;-69
2022/03/14 01:14:43;;;;;;;;;;;;;;;27.96;58.03;98336.45;627028;226;65165;-69
2022/03/14 01:17:11;;;;;;;;;;;;;;;27.94;57.93;98335.95;627065;226;65117;-69
2022/03/14 01:19:39;;;;;;;;;;;;;;;27.93;59.19;98337.03;627019;226;65252;-70
2022/03/14 01:22:12;;;;;;;;;;;;;;;27.92;59.02;98338.13;627012;226;65255;-69
2022/03/14 01:24:40;;;;;;;;;;;;;;;27.91;57.46;98336.53;626968;226;65976;-69
2022/03/14 01:27:08;;;;;;;;;;;;;;;27.91;59.01;98341.94;627026;226;63933;-69
2022/03/14 01:29:36;;;;;;;;;;;;;;;27.89;59.06;98344.11;627045;226;65121;-69
2022/03/14 01:32:03;;;;;;;;;;;;;;;27.88;59.25;98342.48;627028;226;65729;-69
2022/03/14 01:34:31;;;;;;;;;;;;;;;27.87;59.37;98346.28;627040;226;65154;-69
2022/03/14 01:36:58;;;;;;;;;;;;;;;27.86;58.99;98339.27;627030;226;65084;-69
2022/03/14 01:39:26;;;;;;;;;;;;;;;27.85;59.45;98343.05;625876;226;63312;-69
2022/03/14 01:41:55;;;;;;;;;;;;;;;27.84;57.92;98344.15;624757;227;63309;-69
2022/03/14 01:44:22;;;;;;;;;;;;;;;27.83;59.95;98346.05;624781;227;65198;-69
2022/03/14 01:46:50;;;;;;;;;;;;;;;27.83;58.69;98353.35;624699;227;64198;-69
2022/03/14 01:49:18;;;;;;;;;;;;;;;27.81;59.02;98350.13;624698;227;65245;-69
2022/03/14 01:51:45;;;;;;;;;;;;;;;27.79;59.17;98354.97;624722;227;65348;-69
2022/03/14 01:54:13;;;;;;;;;;;;;;;27.78;59.26;98348.77;624799;227;62723;-69
2022/03/14 01:56:43;;;;;;;;;;;;;;;27.77;59.23;98354.44;624751;227;65038;-69
2022/03/14 01:59:11;;;;;;;;;;;;;;;27.76;58.90;98355.53;624723;227;62576;-69
2022/03/14 02:01:39;;;;;;;;;;;;;;;27.76;59.21;98363.64;624729;227;65867;-69
2022/03/14 02:04:08;;;;;;;;;;;;;;;27.73;59.09;98367.71;624788;227;64817;-69
2022/03/14 02:06:35;;;;;;;;;;;;;;;27.74;60.34;98358.50;624789;227;64202;-69
2022/03/14 02:09:04;;;;;;;;;;;;;;;27.73;59.61;98366.91;624764;227;66188;-69
2022/03/14 02:11:32;;;;;;;;;;;;;;;27.72;58.78;98365.28;624717;227;65680;-69
2022/03/14 02:13:59;;;;;;;;;;;;;;;27.69;58.30;98366.64;624719;227;65294;-69
2022/03/14 02:16:27;;;;;;;;;;;;;;;27.68;59.40;98376.65;624757;227;65350;-69
2022/03/14 02:18:55;;;;;;;;;;;;;;;27.71;59.76;98374.48;624815;227;65134;-69
2022/03/14 02:21:23;;;;;;;;;;;;;;;27.66;59.39;98378.84;624742;227;65194;-69
2022/03/14 02:23:50;;;;;;;;;;;;;;;27.67;59.58;98393.16;624731;227;63200;-69
2022/03/14 02:26:20;;;;;;;;;;;;;;;27.64;59.05;98394.52;624732;227;62929;-69
2022/03/14 02:28:47;;;;;;;;;;;;;;;27.64;59.83;98391.82;624779;227;65374;-69
2022/03/14 02:31:15;;;;;;;;;;;;;;;27.63;60.34;98398.29;624743;227;64944;-70
2022/03/14 02:33:42;;;;;;;;;;;;;;;27.61;60.07;98405.89;624785;227;65334;-70
2022/03/14 02:36:10;;;;;;;;;;;;;;;27.61;59.69;98399.66;624727;227;65157;-70
2022/03/14 02:38:37;;;;;;;;;;;;;;;27.59;59.87;98405.35;624652;227;65683;-69
2022/03/14 02:41:05;;;;;;;;;;;;;;;27.59;59.69;98405.35;624756;227;65310;-69
2022/03/14 02:43:32;;;;;;;;;;;;;;;27.57;60.00;98410.22;624757;227;65350;-69
2022/03/14 02:46:00;;;;;;;;;;;;;;;27.56;58.99;98405.92;624785;227;65727;-69
2022/03/14 02:48:27;;;;;;;;;;;;;;;27.56;60.65;98411.32;624749;227;62967;-69
2022/03/14 02:50:56;;;;;;;;;;;;;;;27.55;61.05;98414.28;624681;227;65800;-70
2022/03/14 02:53:24;;;;;;;;;;;;;;;27.52;60.91;98404.05;624779;227;65223;-69
2022/03/14 02:55:51;;;;;;;;;;;;;;;27.50;59.83;98412.45;624645;227;65287;-69
2022/03/14 02:58:19;;;;;;;;;;;;;;;27.51;60.81;98405.15;624783;227;63062;-69
2022/03/14 03:00:46;;;;;;;;;;;;;;;27.48;60.18;98411.91;624700;227;63091;-69
2022/03/14 03:03:14;;;;;;;;;;;;;;;27.48;60.79;98408.41;624749;227;62976;-69
2022/03/14 03:05:43;;;;;;;;;;;;;;;27.47;60.88;98412.18;624692;227;65078;-69
2022/03/14 03:08:11;;;;;;;;;;;;;;;27.47;61.06;98415.68;624760;227;65351;-69
2022/03/14 03:10:40;;;;;;;;;;;;;;;27.45;60.27;98404.38;624779;227;63211;-69
2022/03/14 03:13:07;;;;;;;;;;;;;;;27.43;59.40;98414.64;624753;227;65396;-69
2022/03/14 03:15:36;;;;;;;;;;;;;;;27.41;59.06;98412.20;624711;227;63259;-69
2022/03/14 03:18:05;;;;;;;;;;;;;;;27.42;60.89;98418.44;624723;227;65058;-69
2022/03/14 03:20:32;;;;;;;;;;;;;;;27.40;60.73;98424.11;624752;227;65279;-68
2022/03/14 03:23:00;;;;;;;;;;;;;;;27.39;59.96;98421.67;624750;227;65416;-69
2022/03/14 03:25:27;;;;;;;;;;;;;;;27.38;60.35;98423.56;624754;227;65220;-69
2022/03/14 03:27:55;;;;;;;;;;;;;;;27.37;61.19;98434.66;624736;227;65357;-69
2022/03/14 03:30:23;;;;;;;;;;;;;;;27.36;61.36;98439.23;624730;227;65658;-69
2022/03/14 03:32:51;;;;;;;;;;;;;;;27.33;60.18;98431.69;624732;227;66576;-69
2022/03/14 03:35:18;;;;;;;;;;;;;;;27.34;60.45;98440.63;624738;227;65270;-68
2022/03/14 03:37:46;;;;;;;;;;;;;;;27.31;60.99;98444.69;624766;227;65494;-69
2022/03/14 03:40:13;;;;;;;;;;;;;;;27.32;60.87;98448.98;626522;226;65017;-69
2022/03/14 03:42:42;;;;;;;;;;;;;;;27.29;61.97;98457.64;627062;226;62647;-69
2022/03/14 03:45:10;;;;;;;;;;;;;;;27.29;61.51;98464.94;626974;226;62665;-69
2022/03/14 03:47:37;;;;;;;;;;;;;;;27.28;61.29;98455.20;627047;226;64790;-69
2022/03/14 03:50:05;;;;;;;;;;;;;;;27.27;61.76;98457.11;627049;226;62961;-69
2022/03/14 03:52:32;;;;;;;;;;;;;;;27.26;60.71;98462.80;627046;226;65422;-69
2022/03/14 03:55:00;;;;;;;;;;;;;;;27.24;60.93;98463.06;627033;226;64791;-69
2022/03/14 03:57:27;;;;;;;;;;;;;;;27.23;61.84;98473.05;627023;226;65200;-69
2022/03/14 03:59:55;;;;;;;;;;;;;;;27.22;60.75;98478.72;627005;226;65249;-69
2022/03/14 04:02:22;;;;;;;;;;;;;;;27.20;61.40;98479.02;627096;226;64945;-69
2022/03/14 04:04:50;;;;;;;;;;;;;;;27.20;62.26;98480.88;626997;226;65092;-69
2022/03/14 04:07:23;;;;;;;;;;;;;;;27.18;61.03;98483.87;627022;226;65300;-69
2022/03/14 04:09:55;;;;;;;;;;;;;;;27.17;60.83;98487.66;627027;226;62882;-69
2022/03/14 04:12:22;;;;;;;;;;;;;;;27.17;62.50;98495.76;626921;225;63047;-69
2022/03/14 04:14:49;;;;;;;;;;;;;;;27.15;61.57;98492.48;626987;226;63026;-69
2022/03/14 04:17:16;;;;;;;;;;;;;;;27.14;62.35;98490.05;627041;226;65098;-69
2022/03/14 04:19:44;;;;;;;;;;;;;;;27.13;61.61;98493.84;627011;226;65397;-69
2022/03/14 04:22:15;;;;;;;;;;;;;;;27.11;61.91;98496.80;627027;226;65360;-69
2022/03/14 04:24:42;;;;;;;;;;;;;;;27.11;62.35;98496.80;627004;226;65173;-69
2022/03/14 04:27:10;;;;;;;;;;;;;;;27.10;62.76;98494.40;626991;226;65291;-69
2022/03/14 04:29:39;;;;;;;;;;;;;;;27.07;62.07;98495.76;627053;225;41748;-69
2022/03/14 04:32:07;;;;;;;;;;;;;;;27.08;62.68;98501.95;626988;226;62926;-69
2022/03/14 04:34:34;;;;;;;;;;;;;;;27.07;62.79;98505.75;627000;226;65737;-70
2022/03/14 04:37:02;;;;;;;;;;;;;;;27.04;62.61;98501.70;627018;226;65459;-69
2022/03/14 04:39:29;;;;;;;;;;;;;;;27.04;62.42;98511.66;626915;226;65325;-69
2022/03/14 04:41:57;;;;;;;;;;;;;;;27.04;64.16;98511.66;627081;226;65113;-69
2022/03/14 04:44:25;;;;;;;;;;;;;;;27.00;62.27;98508.72;627082;226;65700;-69
2022/03/14 04:46:53;;;;;;;;;;;;;;;27.00;62.65;98517.62;627023;226;65129;-69
2022/03/14 04:49:21;;;;;;;;;;;;;;;27.01;63.27;98519.25;627033;226;63205;-69
2022/03/14 04:51:50;;;;;;;;;;;;;;;26.99;63.60;98513.31;627018;226;63318;-69
2022/03/14 04:54:17;;;;;;;;;;;;;;;26.97;62.70;98523.56;627011;226;63068;-71
2022/03/14 04:56:45;;;;;;;;;;;;;;;26.97;63.67;98528.16;627117;226;63127;-70
2022/03/14 04:59:13;;;;;;;;;;;;;;;26.95;61.62;98525.72;627021;226;65193;-70
2022/03/14 05:01:40;;;;;;;;;;;;;;;26.94;62.65;98528.70;627014;226;65036;-69
2022/03/14 05:04:08;;;;;;;;;;;;;;;26.94;62.70;98532.20;627011;226;65292;-71
2022/03/14 05:06:36;;;;;;;;;;;;;;;26.93;62.09;98544.09;626983;226;63337;-70
2022/03/14 05:09:05;;;;;;;;;;;;;;;26.92;62.65;98544.35;627079;226;65085;-70
2022/03/14 05:11:38;;;;;;;;;;;;;;;26.92;62.64;98547.05;627007;226;65175;-69
2022/03/14 05:14:08;;;;;;;;;;;;;;;26.89;62.36;98550.30;626993;225;65521;-70
2022/03/14 05:16:35;;;;;;;;;;;;;;;26.90;62.92;98549.20;627067;226;66123;-70
2022/03/14 05:19:04;;;;;;;;;;;;;;;26.87;62.97;98558.64;626981;226;65512;-70
2022/03/14 05:21:33;;;;;;;;;;;;;;;26.85;63.98;98562.73;627110;226;65504;-71
2022/03/14 05:24:02;;;;;;;;;;;;;;;26.86;63.65;98558.94;627037;226;65101;-69
2022/03/14 05:26:29;;;;;;;;;;;;;;;26.83;62.80;98565.68;627033;226;65147;-70
2022/03/14 05:28:57;;;;;;;;;;;;;;;26.82;63.78;98569.47;626991;226;65424;-69
2022/03/14 05:31:25;;;;;;;;;;;;;;;26.82;62.15;98571.33;627022;226;65144;-68
2022/03/14 05:33:52;;;;;;;;;;;;;;;26.82;63.62;98574.03;627026;226;65371;-68
2022/03/14 05:36:20;;;;;;;;;;;;;;;26.79;62.14;98570.82;627074;226;63155;-68
2022/03/14 05:38:48;;;;;;;;;;;;;;;26.81;63.92;98575.92;626970;226;65192;-68
2022/03/14 05:41:17;;;;;;;;;;;;;;;26.79;63.29;98576.22;627017;226;63915;-68
2022/03/14 05:43:44;;;;;;;;;;;;;;;26.78;62.25;98574.58;627035;226;63192;-68
2022/03/14 05:46:12;;;;;;;;;;;;;;;26.78;62.03;98579.17;627036;226;63066;-68
2022/03/14 05:48:39;;;;;;;;;;;;;;;26.79;63.60;98586.17;626905;226;65272;-68
2022/03/14 05:51:10;;;;;;;;;;;;;;;26.78;64.02;98584.56;626925;226;65607;-68
2022/03/14 05:53:37;;;;;;;;;;;;;;;26.80;63.04;98593.20;626991;226;63500;-68
2022/03/14 05:56:05;;;;;;;;;;;;;;;26.79;62.84;98595.09;626806;226;63182;-68
2022/03/14 05:58:33;;;;;;;;;;;;;;;26.77;63.82;98599.94;626972;226;65373;-68
2022/03/14 06:01:01;;;;;;;;;;;;;;;26.77;64.06;98597.25;626988;226;62981;-68
2022/03/14 06:03:28;;;;;;;;;;;;;;;26.76;63.27;98603.73;626912;226;63150;-68
2022/03/14 06:05:56;;;;;;;;;;;;;;;26.77;62.15;98605.34;627005;226;62978;-68
2022/03/14 06:08:23;;;;;;;;;;;;;;;26.78;63.68;98608.84;627063;226;63265;-68
2022/03/14 06:10:51;;;;;;;;;;;;;;;26.78;63.37;98603.44;627033;226;63011;-68
2022/03/14 06:13:18;;;;;;;;;;;;;;;26.78;63.57;98612.34;626991;226;64922;-68
2022/03/14 06:15:47;;;;;;;;;;;;;;;26.78;62.22;98611.53;627064;226;66109;-68
2022/03/14 06:18:14;;;;;;;;;;;;;;;26.79;63.16;98616.67;626960;226;63274;-69
2022/03/14 06:20:42;;;;;;;;;;;;;;;26.78;63.51;98623.13;626981;226;63198;-68
2022/03/14 06:23:09;;;;;;;;;;;;;;;26.79;62.45;98619.38;627046;226;63182;-69
2022/03/14 06:25:37;;;;;;;;;;;;;;;26.79;60.64;98615.84;626809;226;63220;-69
2022/03/14 06:28:05;;;;;;;;;;;;;;;26.81;62.69;98616.38;627025;226;63239;-69
2022/03/14 06:30:33;;;;;;;;;;;;;;;26.80;62.58;98625.56;627023;226;65154;-68
2022/03/14 06:33:00;;;;;;;;;;;;;;;26.81;63.83;98635.27;627020;226;63310;-68
2022/03/14 06:35:28;;;;;;;;;;;;;;;26.81;62.90;98637.16;626945;226;65674;-69
2022/03/14 06:37:56;;;;;;;;;;;;;;;26.82;60.79;98641.47;627022;226;62832;-69
2022/03/14 06:40:26;;;;;;;;;;;;;;;26.83;63.35;98643.91;624957;226;63005;-69
2022/03/14 06:42:53;;;;;;;;;;;;;;;26.86;61.20;98653.34;624545;225;63195;-69
2022/03/14 06:45:26;;;;;;;;;;;;;;;26.86;62.15;98650.65;624436;227;66359;-69
2022/03/14 06:47:51;;;;;;;;;;;;;;;26.85;62.87;98652.55;624560;225;65423;-69
2022/03/14 06:50:20;;;;;;;;;;;;;;;26.85;60.46;98654.44;624698;227;63017;-69
2022/03/14 06:52:47;;;;;;;;;;;;;;;26.86;60.75;98647.95;624733;227;66127;-69
2022/03/14 06:55:15;;;;;;;;;;;;;;;26.86;61.17;98645.25;624763;227;65378;-69
2022/03/14 06:57:42;;;;;;;;;;;;;;;26.87;63.01;98646.86;624733;227;63235;-69
2022/03/14 07:00:11;;;;;;;;;;;;;;;26.88;62.62;98651.20;624768;227;65006;-69
2022/03/14 07:02:40;;;;;;;;;;;;;;;26.88;61.52;98660.09;624580;227;63349;-65
2022/03/14 07:05:10;;;;;;;;;;;;;;;26.89;62.60;98655.50;624677;227;65395;-65
2022/03/14 07:07:38;;;;;;;;;;;;;;;26.89;61.90;98655.50;624737;227;65538;-67
2022/03/14 07:10:06;;;;;;;;;;;;;;;26.88;60.81;98654.70;624704;227;63158;-65
2022/03/14 07:12:45;;;;;;;;;;;;;;;26.86;60.76;98656.84;624719;227;65719;-65
2022/03/14 07:15:03;;;;;;;;;;;;;;;26.86;61.97;98656.84;624324;225;65053;-66
2022/03/14 07:17:30;;;;;;;;;;;;;;;26.86;60.74;98664.14;623922;227;65117;-66
2022/03/14 07:19:58;;;;;;;;;;;;;;;26.88;61.11;98670.08;617709;227;65378;-67
2022/03/14 07:22:29;;;;;;;;;;;;;;;26.88;60.87;98661.98;617609;230;65228;-70
2022/03/14 07:24:54;;;;;;;;;;;;;;;26.88;61.30;98656.59;617384;228;65132;-66
2022/03/14 07:27:22;;;;;;;;;;;;;;;26.89;59.45;98660.89;617237;230;65121;-64
2022/03/14 07:29:49;;;;;;;;;;;;;;;26.89;60.24;98653.61;617488;230;65001;-64
2022/03/14 07:32:17;;;;;;;;;;;;;;;26.90;61.47;98662.50;617534;230;65354;-63
2022/03/14 07:34:44;;;;;;;;;;;;;;;26.91;59.90;98669.53;617580;230;63217;-65
2022/03/14 07:37:12;;;;;;;;;;;;;;;26.92;59.54;98665.75;617584;230;65108;-67
2022/03/14 07:39:40;;;;;;;;;;;;;;;26.87;60.24;98673.84;618758;229;62751;-66
2022/03/14 07:42:08;;;;;;;;;;;;;;;26.86;58.57;98678.42;619834;229;62925;-67
2022/03/14 07:44:37;;;;;;;;;;;;;;;26.87;57.57;98669.25;615750;229;64444;-67
2022/03/14 07:47:10;;;;;;;;;;;;;;;26.86;57.61;98673.03;619857;229;65305;-67
2022/03/14 07:49:35;;;;;;;;;;;;;;;26.82;57.94;98676.53;619706;228;65076;-66
2022/03/14 07:52:03;;;;;;;;;;;;;;;26.82;58.53;98676.53;619794;229;64760;-75
2022/03/14 07:54:30;;;;;;;;;;;;;;;26.81;57.75;98683.81;619816;229;65255;-68
2022/03/14 07:57:00;;;;;;;;;;;;;;;26.81;54.99;98685.71;619799;229;62692;-67
2022/03/14 07:59:27;;;;;;;;;;;;;;;26.85;57.96;98686.80;619685;226;62896;-66
2022/03/14 08:01:55;;;;;;;;;;;;;;;26.87;58.94;98682.73;626795;226;65765;-66
2022/03/14 08:04:23;;;;;;;;;;;;;;;26.89;57.25;98682.48;626974;226;64971;-66
2022/03/14 08:06:51;;;;;;;;;;;;;;;26.90;58.76;98693.02;626891;226;62842;-68
2022/03/14 08:09:21;;;;;;;;;;;;;;;26.91;58.03;98691.12;626998;226;65159;-67
2022/03/14 08:11:48;;;;;;;;;;;;;;;26.92;58.37;98687.33;626834;226;62967;-65
2022/03/14 08:14:16;;;;;;;;;;;;;;;26.94;57.44;98687.88;626894;226;64762;-67
2022/03/14 08:16:44;;;;;;;;;;;;;;;26.94;56.22;98690.57;626900;226;65117;-68
2022/03/14 08:19:12;;;;;;;;;;;;;;;26.94;58.87;98683.28;627009;226;65340;-67
2022/03/14 08:21:40;;;;;;;;;;;;;;;26.95;59.17;98687.59;626791;226;63118;-66
2022/03/14 08:24:09;;;;;;;;;;;;;;;26.94;57.79;98688.68;626966;226;65416;-67
2022/03/14 08:26:38;;;;;;;;;;;;;;;26.95;57.93;98694.88;626946;226;65449;-66
2022/03/14 08:29:06;;;;;;;;;;;;;;;26.95;57.72;98686.78;626913;226;62726;-68
2022/03/14 08:31:34;;;;;;;;;;;;;;;26.93;56.33;98680.88;626968;226;65114;-68
2022/03/14 08:34:04;;;;;;;;;;;;;;;26.96;57.44;98683.03;623745;226;46257;-68
2022/03/14 08:36:36;;;;;;;;;;;;;;;26.99;57.13;98679.78;622707;226;43978;-69
2022/03/14 08:39:04;;;;;;;;;;;;;;;27.04;57.94;98692.44;620997;226;65268;-73
2022/03/14 08:41:32;;;;;;;;;;;;;;;27.03;57.31;98686.25;617519;230;65120;-73
2022/03/14 08:43:59;;;;;;;;;;;;;;;27.01;58.89;98691.92;617598;230;62859;-76
2022/03/14 08:46:27;;;;;;;;;;;;;;;26.99;57.01;98687.88;617602;230;65243;-76
2022/03/14 08:48:54;;;;;;;;;;;;;;;26.94;56.50;98685.18;617588;230;65527;-76
2022/03/14 08:51:22;;;;;;;;;;;;;;;26.93;55.85;98684.38;617588;230;65122;-71
2022/03/14 08:53:50;;;;;;;;;;;;;;;26.91;55.04;98681.13;617557;230;65208;-63
2022/03/14 08:56:17;;;;;;;;;;;;;;;26.91;54.78;98678.44;617521;230;66009;-70
2022/03/14 08:58:45;;;;;;;;;;;;;;;26.89;54.57;98687.88;617569;230;65013;-74
2022/03/14 09:01:13;;;;;;;;;;;;;;;26.88;56.87;98683.56;617469;230;65904;-75
2022/03/14 09:03:42;;;;;;;;;;;;;;;26.92;56.61;98690.03;620521;226;66810;-72
2022/03/14 09:06:09;;;;;;;;;;;;;;;26.96;54.80;98683.83;625935;226;64431;-74
2022/03/14 09:08:39;;;;;;;;;;;;;;;26.98;56.42;98680.84;625914;226;65436;-68
2022/03/14 09:11:06;;;;;;;;;;;;;;;27.01;55.62;98685.73;625898;226;65089;-68
2022/03/14 09:13:34;;;;;;;;;;;;;;;27.03;55.58;98686.25;626046;226;66983;-70
2022/03/14 09:16:02;;;;;;;;;;;;;;;27.06;55.43;98685.70;625922;226;65391;-69
2022/03/14 09:18:31;;;;;;;;;;;;;;;27.08;55.14;98680.84;625868;224;67143;-69
2022/03/14 09:20:59;;;;;;;;;;;;;;;27.09;55.42;98685.19;625987;226;67169;-68
2022/03/14 09:23:27;;;;;;;;;;;;;;;27.09;56.31;98677.09;618676;226;65374;-67
2022/03/14 09:25:56;;;;;;;;;;;;;;;27.11;55.47;98685.70;625934;226;64726;-70
2022/03/14 09:28:23;;;;;;;;;;;;;;;27.12;56.31;98678.41;626078;226;66675;-67
2022/03/14 09:30:51;;;;;;;;;;;;;;;27.14;55.43;98685.16;625930;226;65532;-66
2022/03/14 09:33:18;;;;;;;;;;;;;;;27.15;56.21;98678.70;625895;226;67153;-67
2022/03/14 09:35:46;;;;;;;;;;;;;;;27.15;55.16;98676.00;625981;226;67459;-67
2022/03/14 09:38:15;;;;;;;;;;;;;;;27.16;56.28;98685.73;625964;226;65419;-67
2022/03/14 09:40:44;;;;;;;;;;;;;;;27.18;56.23;98682.77;626864;226;67283;-66
2022/03/14 09:43:15;;;;;;;;;;;;;;;27.18;56.17;98686.28;626936;226;64806;-65
2022/03/14 09:45:44;;;;;;;;;;;;;;;27.19;55.30;98693.28;626847;226;62960;-65
2022/03/14 09:48:14;;;;;;;;;;;;;;;27.21;55.83;98688.43;626902;226;68031;-71
2022/03/14 09:50:48;;;;;;;;;;;;;;;27.22;56.03;98690.03;626855;226;67860;-72
2022/03/14 09:53:14;;;;;;;;;;;;;;;27.24;55.29;98697.87;626712;226;63163;-73
2022/03/14 09:55:45;;;;;;;;;;;;;;;27.26;55.41;98697.63;626940;226;66921;-67
2022/03/14 09:58:12;;;;;;;;;;;;;;;27.28;55.01;98687.34;625240;226;64992;-70
2022/03/14 10:00:40;;;;;;;;;;;;;;;27.30;54.45;98693.28;624176;226;65356;-64
2022/03/14 10:03:08;;;;;;;;;;;;;;;27.28;54.30;98695.44;626827;226;67301;-72
2022/03/14 10:05:35;;;;;;;;;;;;;;;27.26;55.97;98693.02;622705;226;65380;-70
2022/03/14 10:08:03;;;;;;;;;;;;;;;27.28;55.53;98688.14;626819;226;62934;-73
2022/03/14 10:10:31;;;;;;;;;;;;;;;27.30;53.96;98688.69;626796;226;65207;-71
2022/03/14 10:12:59;;;;;;;;;;;;;;;27.33;54.19;98681.94;626740;226;65972;-70
2022/03/14 10:15:28;;;;;;;;;;;;;;;27.33;53.72;98681.94;626793;226;65005;-72
2022/03/14 10:17:55;;;;;;;;;;;;;;;27.35;53.87;98679.78;626786;226;67026;-73
2022/03/14 10:20:24;;;;;;;;;;;;;;;27.36;52.58;98689.48;626881;226;67021;-72
2022/03/14 10:22:51;;;;;;;;;;;;;;;27.38;52.91;98692.73;626726;226;65321;-79
2022/03/14 10:25:20;;;;;;;;;;;;;;;27.39;53.13;98689.77;626767;226;68151;-69
2022/03/14 10:27:49;;;;;;;;;;;;;;;27.40;52.78;98683.27;626849;226;66719;-76
2022/03/14 10:30:30;;;;;;;;;;;;;;;27.42;53.42;98691.12;626748;226;65370;-75
2022/03/14 10:33:08;;;;;;;;;;;;;;;27.43;53.36;98688.13;626735;226;64874;-73
2022/03/14 10:35:36;;;;;;;;;;;;;;;27.45;52.87;98685.97;626828;226;64713;-67
2022/03/14 10:38:05;;;;;;;;;;;;;;;27.42;56.20;98685.72;626799;226;63159;-65
2022/03/14 10:40:36;;;;;;;;;;;;;;;27.43;54.65;98684.63;626783;226;67357;-65
2022/03/14 10:43:08;;;;;;;;;;;;;;;27.43;54.64;98685.42;626769;226;67926;-66
2022/03/14 10:45:37;;;;;;;;;;;;;;;27.42;53.98;98673.02;626847;226;65302;-63
2022/03/14 10:48:05;;;;;;;;;;;;;;;27.42;54.17;98683.82;626744;226;67201;-64
2022/03/14 10:50:36;;;;;;;;;;;;;;;27.43;52.94;98677.33;626805;226;67364;-64
2022/03/14 10:53:19;;;;;;;;;;;;;;;27.44;53.95;98661.93;625943;226;65634;-63
2022/03/14 10:55:48;;;;;;;;;;;;;;;27.45;54.33;98664.38;625908;226;65037;-63
2022/03/14 10:58:16;;;;;;;;;;;;;;;27.44;53.80;98670.83;626792;226;64949;-64
2022/03/14 11:00:46;;;;;;;;;;;;;;;27.44;53.33;98668.13;626774;226;65286;-64
2022/03/14 11:03:15;;;;;;;;;;;;;;;27.44;54.19;98665.43;626591;225;67207;-65
2022/03/14 11:05:43;;;;;;;;;;;;;;;27.45;53.17;98669.77;625740;225;67236;-64
2022/03/14 11:08:30;;;;;;;;;;;;;;;27.44;53.15;98667.33;626834;226;65142;-63
2022/03/14 11:10:59;;;;;;;;;;;;;;;27.45;52.93;98663.56;626187;226;66859;-71
2022/03/14 11:13:26;;;;;;;;;;;;;;;27.44;53.38;98659.23;626711;226;64748;-74
2022/03/14 11:15:56;;;;;;;;;;;;;;;27.48;49.75;98652.22;624159;226;63157;-68
2022/03/14 11:18:24;;;;;;;;;;;;;;;27.56;48.98;98656.25;626821;226;64151;-71
2022/03/14 11:20:52;;;;;;;;;;;;;;;27.58;48.80;98646.80;623342;226;66910;-70
2022/03/14 11:23:20;;;;;;;;;;;;;;;27.62;48.71;98652.44;619690;226;65416;-72
2022/03/14 11:25:48;;;;;;;;;;;;;;;27.65;49.30;98658.09;624531;226;64817;-69
2022/03/14 11:28:17;;;;;;;;;;;;;;;27.66;49.43;98651.63;626746;226;66973;-70
2022/03/14 11:30:59;;;;;;;;;;;;;;;27.69;49.49;98661.04;626611;225;46730;-69
2022/03/14 11:33:27;;;;;;;;;;;;;;;27.72;49.79;98651.58;624450;226;67093;-70
2022/03/14 11:35:55;;;;;;;;;;;;;;;27.72;49.83;98656.98;620055;226;64976;-75
2022/03/14 11:38:22;;;;;;;;;;;;;;;27.73;49.94;98653.22;619547;229;63010;-73
2022/03/14 11:40:51;;;;;;;;;;;;;;;27.75;50.13;98648.36;617318;230;65752;-73
2022/03/14 11:43:19;;;;;;;;;;;;;;;27.74;53.71;98636.72;617339;230;67013;-70
2022/03/14 11:45:47;;;;;;;;;;;;;;;27.63;55.03;98638.64;617382;230;65073;-70
2022/03/14 11:48:15;;;;;;;;;;;;;;;27.70;50.08;98641.07;617096;230;64874;-70
2022/03/14 11:50:47;;;;;;;;;;;;;;;27.75;49.91;98634.84;616517;230;67105;-69
2022/03/14 11:53:21;;;;;;;;;;;;;;;27.75;50.63;98634.84;617352;230;63202;-70
2022/03/14 11:55:54;;;;;;;;;;;;;;;27.78;50.82;98635.09;617331;230;67263;-67
2022/03/14 11:58:36;;;;;;;;;;;;;;;27.76;54.15;98641.86;617319;228;66311;-67
2022/03/14 12:01:13;;;;;;;;;;;;;;;27.73;52.64;98637.81;617338;230;65320;-65
2022/03/14 12:03:42;;;;;;;;;;;;;;;27.74;52.77;98633.22;617474;230;67003;-67
2022/03/14 12:06:10;;;;;;;;;;;;;;;27.74;52.49;98634.02;617482;225;67189;-68
2022/03/14 12:08:40;;;;;;;;;;;;;;;27.75;51.67;98630.25;617363;228;65460;-73
2022/03/14 12:11:25;;;;;;;;;;;;;;;27.75;51.93;98629.45;617433;230;66701;-72
2022/03/14 12:13:53;;;;;;;;;;;;;;;27.76;52.52;98631.05;617463;230;66715;-69
2022/03/14 12:16:39;;;;;;;;;;;;;;;27.77;51.25;98627.26;616551;230;65294;-70
2022/03/14 12:19:24;;;;;;;;;;;;;;;27.78;51.52;98629.69;617483;230;66794;-69
2022/03/14 12:21:55;;;;;;;;;;;;;;;27.78;51.86;98628.89;617454;230;66674;-69
2022/03/14 12:24:36;;;;;;;;;;;;;;;27.79;51.20;98619.69;617274;230;63294;-69
2022/03/14 12:27:17;;;;;;;;;;;;;;;27.79;52.76;98614.28;619098;227;66529;-72
2022/03/14 12:29:44;;;;;;;;;;;;;;;27.80;52.25;98621.33;621025;227;64770;-68
2022/03/14 12:32:26;;;;;;;;;;;;;;;27.79;51.67;98608.88;620384;227;66283;-67
2022/03/14 12:34:57;;;;;;;;;;;;;;;27.80;52.54;98610.52;624500;227;67191;-69
2022/03/14 12:37:26;;;;;;;;;;;;;;;27.81;51.15;98617.56;624535;227;67143;-68
2022/03/14 12:39:55;;;;;;;;;;;;;;;27.81;51.24;98607.55;624518;227;65220;-70
2022/03/14 12:42:24;;;;;;;;;;;;;;;27.80;53.11;98610.52;624547;227;67159;-70
2022/03/14 12:45:09;;;;;;;;;;;;;;;27.79;51.06;98603.48;624369;227;64368;-67
2022/03/14 12:47:41;;;;;;;;;;;;;;;27.78;51.96;98613.48;624561;227;63307;-68
2022/03/14 12:50:10;;;;;;;;;;;;;;;27.82;51.84;98609.16;624539;227;67291;-63
2022/03/14 12:52:55;;;;;;;;;;;;;;;27.86;50.98;98612.13;624512;227;66852;-67
2022/03/14 12:55:23;;;;;;;;;;;;;;;27.87;51.72;98605.63;624506;227;65543;-69